Latest  Newer  Older  Last 2 hours slideshow  Last 24 hours slideshow  Refresh every 5 minutes 
Current image  Latest image  Rain/snow radar  Cloud coverage sat images 

All time is UTC (add 2 hours to UTC in wintertime, 3 hours to UTC in DST for Latvia local time)

2019/10/14 10:50 EVRA 141050Z 23015G26KT 210V280 9999 FEW018CB SCT030 18/11 Q1005 R18/290195 NOSIG
2019/10/14 10:50 EVLA 141050Z AUTO 24023KT 9999 BKN019/// 15/12 Q1008
2019/10/14 10:50 EVVA 141050Z AUTO 23020KT 9999 BKN018 15/12 Q1005
2019/10/14 10:50 EYKA 141050Z 25013KT 210V290 9999 FEW029 BKN071 20/13 Q1011
2019/10/14 10:50 EYPA 141050Z 25009G19KT 190V310 CAVOK 16/11 Q1010
2019/10/14 10:50 EYSA 141050Z 23022G34KT 9999 SCT023 18/11 Q1009 WHT BECMG SCT025 WHT
2019/10/14 10:50 EYVI 141050Z 24013KT CAVOK 19/13 Q1012 NOSIG
2019/10/14 10:50 EEKA 141050Z 01013KT 9999 -DZ OVC003 08/08 Q1000
2019/10/14 10:50 EEKE 141050Z AUTO 25013KT 210V280 9999NDV FEW013 14/12 Q1001
2019/10/14 10:50 EEPU 141050Z 23015KT 9999 OVC008 14/14 Q1001
2019/10/14 10:50 EETN 141050Z 06009KT 3300 DZRA BR OVC005 07/07 Q1001 NOSIG
2019/10/14 10:50 EETU 141050Z VRB02KT 9999 FEW003 BKN006 BKN023 10/10 Q1002
   RIGA AIRPORT     EVRA               56 55N  023 58E   10   X     T          6 LV
   LIEPAJA INTL     EVLA        26406  56 31N  021 06E    4   X                8 LV
   VENTPILS         EVVA               57 21N  021 33E    6   X                8 LV
   KAUNAS           EYKA               54 54N  023 55E   77   X     T          6 LT
   PALANGA INTL     EYPA               55 55N  021 03E   10   X                6 LT
   SIAULIAI INTL    EYSA               55 54N  023 24E  135   X     T          6 LT
   VILNIUS INTL     EYVI        26730  54 38N  025 17E  197   X     T          6 LT
   KARDLA           EEKA        26116  58 59N  022 50E    4   X                8 EE
   KURESSAARE       EEKE               58 14N  022 31E    4   X                8 EE
   PARNU            EEPU               58 25N  024 28E   14   X                8 EE
   TALLINN          EETN        26038  59 24N  024 49E   40   X     T          8 EE
   TARTU            EETU               58 19N  026 41E   67   X                8 EE